Time;durP1;ratioP1;P1;durP2;ratioP2;P2;SDS_P1;SDS_P2;PMS_P1;PMS_P2;Temp;Humidity;BMP_temperature;BMP_pressure;BME280_temperature;BME280_humidity;BME280_pressure;Samples;Min_cycle;Max_cycle;Signal;HPM_P1;HPM_P2
2022/09/29 00:09:47;;;;;;;0.82;0.68;;;18.20;53.70;;;;;;20722198;28;20050;-73
2022/09/29 00:19:47;;;;;;;1.95;0.80;;;18.20;53.60;;;;;;20695517;28;20099;-72
2022/09/29 00:29:48;;;;;;;0.95;0.60;;;18.20;53.60;;;;;;20721238;28;20494;-71
2022/09/29 00:39:49;;;;;;;0.53;0.50;;;18.30;53.60;;;;;;20739529;28;20458;-71
2022/09/29 00:50:04;;;;;;;0.77;0.65;;;18.20;53.50;;;;;;20638159;28;20380;-72
2022/09/29 01:00:12;;;;;;;0.63;0.45;;;18.10;53.40;;;;;;20654362;28;20076;-72
2022/09/29 01:10:13;;;;;;;0.73;0.50;;;18.10;53.40;;;;;;20653187;28;20034;-72
2022/09/29 01:20:20;;;;;;;1.13;0.65;;;18.10;53.30;;;;;;20643840;28;20034;-71
2022/09/29 01:30:44;;;;;;;0.88;0.40;;;18.10;53.20;;;;;;20651903;28;20038;-72
2022/09/29 01:51:06;;;;;;;0.43;0.43;;;18.10;53.10;;;;;;20701291;22;20054;-72
2022/09/29 02:01:09;;;;;;;0.90;0.52;;;18.00;53.00;;;;;;20636829;28;20501;-71
2022/09/29 02:11:11;;;;;;;1.40;0.77;;;18.00;53.00;;;;;;20603098;28;20116;-75
2022/09/29 02:21:12;;;;;;;0.55;0.40;;;18.00;52.90;;;;;;20649725;28;20038;-71
2022/09/29 02:31:13;;;;;;;1.27;0.88;;;18.00;52.90;;;;;;20661652;28;20052;-72
2022/09/29 02:41:28;;;;;;;1.55;0.73;;;18.00;52.80;;;;;;20567397;28;20430;-72
2022/09/29 02:51:45;;;;;;;1.55;0.60;;;17.90;52.80;;;;;;20566508;28;20039;-72
2022/09/29 03:01:56;;;;;;;0.60;0.50;;;18.00;52.80;;;;;;20621088;28;20030;-72
2022/09/29 03:11:57;;;;;;;0.68;0.68;;;17.90;52.70;;;;;;20571192;28;20072;-71
2022/09/29 03:21:57;;;;;;;3.97;0.80;;;17.80;52.60;;;;;;20565129;28;20062;-72
2022/09/29 03:31:59;;;;;;;3.80;0.80;;;17.80;52.60;;;;;;20547867;28;20043;-72
2022/09/29 03:41:59;;;;;;;0.68;0.60;;;17.80;52.60;;;;;;20706919;28;20041;-72
2022/09/29 03:52:01;;;;;;;1.02;0.73;;;17.80;52.50;;;;;;20591926;28;20489;-74
2022/09/29 04:02:01;;;;;;;2.50;0.52;;;17.80;52.50;;;;;;20572870;28;20499;-72
2022/09/29 04:12:02;;;;;;;1.67;0.75;;;17.80;52.50;;;;;;20652367;28;20042;-72
2022/09/29 04:22:02;;;;;;;0.97;0.50;;;17.80;52.40;;;;;;20723586;28;20030;-73
2022/09/29 04:32:04;;;;;;;0.85;0.68;;;17.70;52.40;;;;;;20614585;28;20298;-78
2022/09/29 04:42:05;;;;;;;1.00;0.60;;;17.70;52.30;;;;;;20576461;28;20034;-75
2022/09/29 04:52:06;;;;;;;0.80;0.60;;;17.70;52.30;;;;;;20593742;28;20049;-79
2022/09/29 05:02:06;;;;;;;1.13;0.60;;;17.70;52.30;;;;;;20605851;28;20031;-78
2022/09/29 05:12:07;;;;;;;0.45;0.40;;;17.70;52.30;;;;;;20621010;28;20429;-78
2022/09/29 05:22:07;;;;;;;0.75;0.70;;;17.60;52.20;;;;;;20652509;28;20569;-78
2022/09/29 05:32:08;;;;;;;0.73;0.60;;;17.60;52.20;;;;;;20623318;28;20077;-79
2022/09/29 05:42:10;;;;;;;1.02;0.82;;;17.60;52.30;;;;;;20714815;28;20046;-78
2022/09/29 05:52:12;;;;;;;1.00;0.73;;;17.60;52.30;;;;;;20612286;28;20100;-81
2022/09/29 06:02:12;;;;;;;1.15;0.80;;;17.60;52.30;;;;;;20553537;28;20051;-81
2022/09/29 06:12:13;;;;;;;1.53;0.80;;;17.50;52.20;;;;;;20571332;28;20129;-80
2022/09/29 06:22:13;;;;;;;1.47;0.70;;;17.50;52.10;;;;;;20726903;28;20638;-80
2022/09/29 06:32:14;;;;;;;1.87;0.80;;;17.50;52.10;;;;;;20675715;28;20309;-81
2022/09/29 06:42:15;;;;;;;5.40;1.45;;;17.50;52.10;;;;;;20568622;28;20293;-78
2022/09/29 06:52:16;;;;;;;1.42;0.75;;;17.50;52.20;;;;;;20621936;28;20463;-79
2022/09/29 07:02:17;;;;;;;1.08;0.65;;;17.50;52.30;;;;;;20647658;28;20027;-78
2022/09/29 07:12:18;;;;;;;1.33;0.80;;;17.50;52.40;;;;;;20565972;28;20069;-80
2022/09/29 07:22:19;;;;;;;1.13;0.82;;;17.40;52.50;;;;;;20608943;28;20058;-81
2022/09/29 07:32:21;;;;;;;1.80;0.85;;;17.40;52.70;;;;;;20609253;28;20672;-81
2022/09/29 07:42:22;;;;;;;3.15;1.20;;;17.40;52.80;;;;;;20709642;28;20096;-81
2022/09/29 07:52:28;;;;;;;1.63;1.00;;;17.40;52.80;;;;;;20605219;28;20034;-81
2022/09/29 08:02:31;;;;;;;1.70;1.05;;;17.50;52.90;;;;;;20643158;28;20031;-82
2022/09/29 08:12:31;;;;;;;1.50;1.23;;;17.50;52.80;;;;;;20636220;28;20043;-80
2022/09/29 08:22:32;;;;;;;1.93;1.30;;;17.60;52.80;;;;;;20689784;28;20048;-80
2022/09/29 08:32:33;;;;;;;2.33;1.33;;;17.70;52.70;;;;;;20717305;28;20343;-78
2022/09/29 08:42:56;;;;;;;2.63;0.88;;;17.80;52.60;;;;;;20655579;28;20062;-77
2022/09/29 08:53:17;;;;;;;1.70;0.80;;;17.90;52.30;;;;;;20598384;28;20039;-78
2022/09/29 09:03:31;;;;;;;3.78;1.33;;;18.10;52.10;;;;;;20684158;28;20038;-78
2022/09/29 09:13:45;;;;;;;3.22;1.27;;;18.20;51.90;;;;;;20572738;28;20046;-79
2022/09/29 09:23:53;;;;;;;3.25;1.73;;;18.30;51.70;;;;;;20583777;28;20030;-78
2022/09/29 09:34:01;;;;;;;3.20;1.80;;;18.50;51.40;;;;;;20639754;28;20100;-78
2022/09/29 09:44:05;;;;;;;1.80;1.10;;;18.60;51.10;;;;;;20612514;28;20049;-78
2022/09/29 09:54:23;;;;;;;2.22;1.45;;;18.70;50.80;;;;;;20561309;28;20050;-78
2022/09/29 10:04:24;;;;;;;2.20;1.30;;;18.90;50.50;;;;;;20618351;28;20034;-77
2022/09/29 10:14:25;;;;;;;1.48;1.13;;;19.00;50.20;;;;;;20575567;28;20479;-77
2022/09/29 10:24:27;;;;;;;1.70;1.00;;;19.10;50.00;;;;;;20696074;28;20038;-74
2022/09/29 10:34:41;;;;;;;1.83;0.80;;;19.20;49.80;;;;;;20608348;28;20038;-73
2022/09/29 10:44:44;;;;;;;1.43;1.03;;;19.30;49.60;;;;;;20561875;28;20042;-72
2022/09/29 10:54:54;;;;;;;3.22;1.30;;;19.40;49.50;;;;;;20582726;28;20613;-78
2022/09/29 11:04:56;;;;;;;4.45;1.23;;;19.50;49.40;;;;;;20613237;28;20039;-73
2022/09/29 11:15:20;;;;;;;2.28;0.70;;;19.60;49.10;;;;;;20627362;28;20058;-74
2022/09/29 11:25:49;;;;;;;1.75;0.98;;;19.70;48.80;;;;;;20639981;28;20085;-73
2022/09/29 11:36:15;;;;;;;1.13;0.70;;;19.90;48.50;;;;;;20646527;28;20400;-75
2022/09/29 11:46:26;;;;;;;2.70;1.42;;;20.00;48.30;;;;;;20561606;28;20453;-72
2022/09/29 11:56:33;;;;;;;0.95;0.73;;;20.10;48.10;;;;;;20578922;28;20592;-72
2022/09/29 12:06:53;;;;;;;1.48;0.70;;;20.10;47.90;;;;;;20626061;28;20129;-72
2022/09/29 12:17:00;;;;;;;1.85;0.82;;;20.20;47.80;;;;;;20609420;28;20043;-73
2022/09/29 12:27:06;;;;;;;2.55;0.70;;;20.20;47.50;;;;;;20555681;28;20389;-74
2022/09/29 12:37:30;;;;;;;0.45;0.32;;;20.30;47.40;;;;;;20591801;28;20051;-74
2022/09/29 12:47:55;;;;;;;1.55;0.85;;;20.40;47.30;;;;;;20562562;28;20049;-73
2022/09/29 12:57:58;;;;;;;0.50;0.50;;;20.50;47.60;;;;;;20628327;28;20033;-74
2022/09/29 13:08:29;;;;;;;1.25;0.70;;;20.60;46.70;;;;;;20738245;28;20034;-72
2022/09/29 13:19:09;;;;;;;1.02;0.40;;;20.60;46.70;;;;;;20738252;28;20038;-73
2022/09/29 13:29:16;;;;;;;3.05;0.70;;;20.80;46.40;;;;;;20666580;28;20401;-73
2022/09/29 13:39:25;;;;;;;1.98;0.65;;;20.90;46.20;;;;;;20668995;28;20452;-74
2022/09/29 13:49:27;;;;;;;6.18;0.75;;;21.10;46.00;;;;;;20585393;28;20666;-73
2022/09/29 13:59:28;;;;;;;0.60;0.50;;;21.10;46.00;;;;;;20570966;28;20085;-73
2022/09/29 14:09:32;;;;;;;0.63;0.30;;;21.20;45.70;;;;;;20569030;28;20616;-75
2022/09/29 14:19:42;;;;;;;1.45;0.47;;;21.30;45.50;;;;;;20567542;28;20066;-76
2022/09/29 14:30:12;;;;;;;2.45;0.65;;;21.40;45.40;;;;;;20562116;28;20081;-74
2022/09/29 14:40:27;;;;;;;25.55;4.85;;;21.40;45.10;;;;;;20601855;28;20466;-72
2022/09/29 15:01:26;;;;;;;7.47;1.85;;;21.60;45.00;;;;;;20707822;28;20377;-73
2022/09/29 15:11:36;;;;;;;18.02;2.03;;;21.60;44.90;;;;;;20629026;28;20043;-74
2022/09/29 15:21:42;;;;;;;10.30;1.50;;;21.60;44.90;;;;;;20612177;28;20030;-74
2022/09/29 15:31:44;;;;;;;4.28;1.55;;;21.70;44.90;;;;;;20627654;28;20043;-74
2022/09/29 15:41:44;;;;;;;7.63;1.10;;;21.70;44.90;;;;;;20698323;28;20113;-71
2022/09/29 15:52:05;;;;;;;6.30;1.85;;;21.70;44.90;;;;;;20738670;28;20552;-73
2022/09/29 16:02:10;;;;;;;4.50;1.20;;;21.70;44.80;;;;;;20596393;28;20114;-71
2022/09/29 16:12:14;;;;;;;3.22;1.92;;;21.70;45.70;;;;;;20582410;28;20042;-75
2022/09/29 16:22:19;;;;;;;2.87;1.07;;;21.70;45.00;;;;;;20674311;28;20043;-76
2022/09/29 16:33:12;;;;;;;7.27;1.00;;;21.70;45.80;;;;;;20611806;28;20042;-76
2022/09/29 16:43:29;;;;;;;5.20;2.55;;;21.70;45.20;;;;;;20566352;28;20146;-76
2022/09/29 16:53:32;;;;;;;5.85;1.10;;;21.60;45.30;;;;;;20636293;28;20042;-75
2022/09/29 17:03:33;;;;;;;3.30;2.10;;;21.50;45.50;;;;;;20665634;28;20034;-73
2022/09/29 17:13:34;;;;;;;1.95;0.85;;;21.40;45.70;;;;;;20633212;28;20026;-74
2022/09/29 17:23:35;;;;;;;2.05;0.80;;;21.50;45.80;;;;;;20636850;28;20088;-73
2022/09/29 17:33:36;;;;;;;3.15;0.95;;;22.50;44.10;;;;;;20657138;28;20041;-74
2022/09/29 17:43:37;;;;;;;1.73;0.82;;;23.90;41.70;;;;;;20654185;28;20034;-75
2022/09/29 17:53:37;;;;;;;1.33;0.50;;;23.90;41.40;;;;;;20650543;28;20476;-74
2022/09/29 18:03:38;;;;;;;2.47;0.70;;;23.20;42.20;;;;;;20650051;28;20058;-73
2022/09/29 18:13:39;;;;;;;1.70;0.57;;;23.20;42.30;;;;;;20642228;28;20142;-75
2022/09/29 18:23:41;;;;;;;0.88;0.52;;;23.20;42.30;;;;;;20660381;28;20141;-74
2022/09/29 18:33:41;;;;;;;2.55;0.57;;;23.20;42.20;;;;;;20575701;28;20043;-75
2022/09/29 18:43:42;;;;;;;1.25;0.50;;;23.10;42.30;;;;;;20569017;28;20053;-75
2022/09/29 18:53:43;;;;;;;0.63;0.50;;;23.10;42.40;;;;;;20562895;28;20101;-74
2022/09/29 19:03:43;;;;;;;0.57;0.30;;;23.00;42.40;;;;;;20609770;28;20374;-73
2022/09/29 19:13:44;;;;;;;0.68;0.47;;;23.00;42.60;;;;;;20550938;28;20043;-73
2022/09/29 19:23:47;;;;;;;0.85;0.50;;;22.90;42.60;;;;;;20627886;28;20042;-74
2022/09/29 19:33:49;;;;;;;0.60;0.45;;;22.80;42.70;;;;;;20668531;28;20038;-74
2022/09/29 19:43:50;;;;;;;0.50;0.40;;;22.70;42.70;;;;;;20624637;28;20062;-74
2022/09/29 19:54:09;;;;;;;2.22;0.50;;;22.70;42.80;;;;;;20593638;28;20094;-73
2022/09/29 20:04:11;;;;;;;0.50;0.40;;;22.60;42.90;;;;;;20622962;28;20030;-73
2022/09/29 20:14:12;;;;;;;0.50;0.40;;;22.50;42.90;;;;;;20651946;28;20517;-73
2022/09/29 20:24:14;;;;;;;0.20;0.20;;;22.50;43.00;;;;;;20574432;28;20081;-73
2022/09/29 20:34:17;;;;;;;0.50;0.30;;;22.40;43.00;;;;;;20594159;28;20085;-75
2022/09/29 20:44:18;;;;;;;0.75;0.50;;;22.40;43.10;;;;;;20594260;28;20045;-73
2022/09/29 20:54:19;;;;;;;0.68;0.32;;;22.30;43.20;;;;;;20624017;28;20042;-75
2022/09/29 21:04:20;;;;;;;0.57;0.40;;;22.30;43.30;;;;;;20640394;28;20092;-74
2022/09/29 21:14:23;;;;;;;0.55;0.30;;;22.20;43.40;;;;;;20622971;28;20555;-74
2022/09/29 21:24:23;;;;;;;2.42;0.43;;;22.10;43.40;;;;;;20639427;28;20481;-73
2022/09/29 21:34:24;;;;;;;0.98;0.50;;;22.10;43.50;;;;;;20630039;28;20038;-74
2022/09/29 21:44:24;;;;;;;0.85;0.25;;;22.00;43.50;;;;;;20599557;28;20035;-75
2022/09/29 21:54:25;;;;;;;1.17;0.45;;;22.00;43.60;;;;;;20574814;28;20042;-75
2022/09/29 22:04:26;;;;;;;0.52;0.43;;;21.90;43.60;;;;;;20650246;28;20039;-73
2022/09/29 22:14:26;;;;;;;4.53;0.50;;;21.90;43.70;;;;;;20647162;28;20072;-73
2022/09/29 22:24:27;;;;;;;1.27;0.47;;;21.80;43.80;;;;;;20713615;28;20342;-74
2022/09/29 22:34:28;;;;;;;4.38;0.43;;;21.80;43.80;;;;;;20729199;28;20332;-73
2022/09/29 22:44:28;;;;;;;0.60;0.47;;;21.80;43.90;;;;;;20712261;28;20499;-74
2022/09/29 22:54:29;;;;;;;1.45;0.50;;;21.70;43.90;;;;;;20611197;28;20300;-73
2022/09/29 23:04:29;;;;;;;0.63;0.43;;;21.70;44.00;;;;;;20577165;28;20520;-73
2022/09/29 23:14:30;;;;;;;0.90;0.70;;;21.60;44.00;;;;;;20551101;28;20423;-73
2022/09/29 23:24:31;;;;;;;0.75;0.57;;;21.60;44.10;;;;;;20583653;28;20422;-73
2022/09/29 23:34:31;;;;;;;1.05;0.88;;;21.50;44.20;;;;;;20581154;28;20117;-74
2022/09/29 23:44:34;;;;;;;2.72;0.70;;;21.50;44.20;;;;;;20627888;28;20398;-76
2022/09/29 23:54:34;;;;;;;0.60;0.40;;;21.50;44.30;;;;;;20583296;28;20042;-74
